createdAt,value
2022-10-18T00:02:35.677Z,8.21
2022-10-18T00:05:20.634Z,8.19
2022-10-18T00:08:05.667Z,8.11
2022-10-18T00:10:50.955Z,8.04
2022-10-18T00:13:36.273Z,7.96
2022-10-18T00:16:21.232Z,7.89
2022-10-18T00:19:06.260Z,7.84
2022-10-18T00:21:51.113Z,7.80
2022-10-18T00:24:36.051Z,7.78
2022-10-18T00:27:21.062Z,7.73
2022-10-18T00:30:06.495Z,7.67
2022-10-18T00:32:51.707Z,7.64
2022-10-18T00:35:36.622Z,7.58
2022-10-18T00:38:21.597Z,7.57
2022-10-18T00:41:09.191Z,7.53
2022-10-18T00:44:05.202Z,7.53
2022-10-18T00:46:52.285Z,7.46
2022-10-18T00:49:41.803Z,7.39
2022-10-18T00:52:41.731Z,7.33
2022-10-18T00:55:27.890Z,7.29
2022-10-18T00:58:15.847Z,7.28
2022-10-18T01:01:00.624Z,7.24
2022-10-18T01:03:45.498Z,7.23
2022-10-18T01:06:32.058Z,7.22
2022-10-18T01:09:45.383Z,7.18
2022-10-18T01:13:02.420Z,7.23
2022-10-18T01:18:45.964Z,7.14
2022-10-18T01:21:47.752Z,7.09
2022-10-18T01:24:49.101Z,7.05
2022-10-18T01:27:56.612Z,7.04
2022-10-18T01:30:53.431Z,7.06
2022-10-18T01:33:45.409Z,7.06
2022-10-18T01:36:32.568Z,7.04
2022-10-18T01:39:26.062Z,7.02
2022-10-18T01:42:13.331Z,6.98
2022-10-18T01:45:00.792Z,6.98
2022-10-18T01:47:47.776Z,6.96
2022-10-18T01:50:34.721Z,6.96
2022-10-18T01:53:32.250Z,6.94
2022-10-18T01:56:46.479Z,6.96
2022-10-18T01:59:31.218Z,6.97
2022-10-18T02:02:47.380Z,6.96
2022-10-18T02:05:39.963Z,6.95
2022-10-18T02:09:07.971Z,6.90
2022-10-18T02:11:54.514Z,6.87
2022-10-18T02:14:42.320Z,6.88
2022-10-18T02:17:29.626Z,6.93
2022-10-18T02:20:19.965Z,6.92
2022-10-18T02:23:10.188Z,6.92
2022-10-18T02:25:55.614Z,6.88
2022-10-18T02:28:41.074Z,6.85
2022-10-18T02:31:28.938Z,6.81
2022-10-18T02:34:25.146Z,6.79
2022-10-18T02:37:10.845Z,6.76
2022-10-18T02:39:56.480Z,6.73
2022-10-18T02:42:48.926Z,6.73
2022-10-18T02:45:33.913Z,6.70
2022-10-18T02:48:18.554Z,6.68
2022-10-18T02:51:03.465Z,6.62
2022-10-18T02:53:48.359Z,6.60
2022-10-18T02:56:33.913Z,6.56
2022-10-18T02:59:18.884Z,6.53
2022-10-18T03:02:04.035Z,6.48
2022-10-18T03:04:48.882Z,6.43
2022-10-18T03:07:34.192Z,6.37
2022-10-18T03:10:19.370Z,6.29
2022-10-18T03:13:04.533Z,6.23
2022-10-18T03:15:49.507Z,6.19
2022-10-18T03:18:34.719Z,6.16
2022-10-18T03:21:19.698Z,6.14
2022-10-18T03:24:05.146Z,6.11
2022-10-18T03:26:50.142Z,6.08
2022-10-18T03:29:34.960Z,6.04
2022-10-18T03:32:19.854Z,6.00
2022-10-18T03:35:05.659Z,5.98
2022-10-18T03:37:50.652Z,5.96
2022-10-18T03:40:35.699Z,5.95
2022-10-18T03:43:20.717Z,5.94
2022-10-18T03:46:05.647Z,5.92
2022-10-18T03:48:50.475Z,5.92
2022-10-18T03:51:35.500Z,5.90
2022-10-18T03:54:20.354Z,5.87
2022-10-18T03:57:05.244Z,5.88
2022-10-18T03:59:50.223Z,5.88
2022-10-18T04:02:35.234Z,5.88
2022-10-18T04:05:20.341Z,5.88
2022-10-18T04:08:05.413Z,5.84
2022-10-18T04:10:51.953Z,5.85
2022-10-18T04:13:36.932Z,5.82
2022-10-18T04:16:22.370Z,5.82
2022-10-18T04:19:07.408Z,5.81
2022-10-18T04:21:52.279Z,5.81
2022-10-18T04:24:38.548Z,5.81
2022-10-18T04:27:23.628Z,5.84
2022-10-18T04:30:08.986Z,5.87
2022-10-18T04:32:53.623Z,5.91
2022-10-18T04:35:38.477Z,5.93
2022-10-18T04:38:23.893Z,6.00
2022-10-18T04:41:08.627Z,6.03
2022-10-18T04:43:53.612Z,6.07
2022-10-18T04:46:38.535Z,6.11
2022-10-18T04:49:23.520Z,6.16
2022-10-18T04:52:08.801Z,6.22
2022-10-18T04:54:53.996Z,6.29
2022-10-18T04:57:38.982Z,6.38
2022-10-18T05:00:23.860Z,6.45
2022-10-18T05:03:10.801Z,6.52
2022-10-18T05:06:03.605Z,6.62
2022-10-18T05:08:49.137Z,6.74
2022-10-18T05:11:34.399Z,6.84
2022-10-18T05:14:19.429Z,6.99
2022-10-18T05:17:04.572Z,7.16
2022-10-18T05:19:49.422Z,7.35
2022-10-18T05:22:34.358Z,7.52
2022-10-18T05:25:19.704Z,7.71
2022-10-18T05:28:10.939Z,7.91
2022-10-18T05:31:07.904Z,8.15
2022-10-18T05:33:52.612Z,8.35
2022-10-18T05:36:37.738Z,8.59
2022-10-18T05:39:22.622Z,8.81
2022-10-18T05:42:08.966Z,9.03
2022-10-18T05:44:55.132Z,9.28
2022-10-18T05:47:40.621Z,9.49
2022-10-18T05:50:28.177Z,9.72
2022-10-18T05:53:35.257Z,9.98
2022-10-18T05:56:19.465Z,10.18
2022-10-18T05:59:07.385Z,10.34
2022-10-18T06:01:52.213Z,10.52
2022-10-18T06:04:37.356Z,10.67
2022-10-18T06:07:22.689Z,10.93
2022-10-18T06:10:08.147Z,11.14
2022-10-18T06:12:53.204Z,11.39
2022-10-18T06:15:38.235Z,11.35
2022-10-18T06:18:23.459Z,11.39
2022-10-18T06:21:12.107Z,11.61
2022-10-18T06:23:58.966Z,11.73
2022-10-18T06:26:44.421Z,11.94
2022-10-18T06:29:29.714Z,12.12
2022-10-18T06:32:41.560Z,12.27
2022-10-18T06:35:26.840Z,12.58
2022-10-18T06:38:13.412Z,12.74
2022-10-18T06:40:59.860Z,12.94
2022-10-18T06:43:53.494Z,13.19
2022-10-18T06:46:39.761Z,13.38
2022-10-18T06:49:24.650Z,13.45
2022-10-18T06:52:09.865Z,13.69
2022-10-18T06:54:54.607Z,13.88
2022-10-18T06:57:39.545Z,13.88
2022-10-18T07:00:24.475Z,14.02
2022-10-18T07:03:09.465Z,14.33
2022-10-18T07:05:54.473Z,14.34
2022-10-18T07:08:40.595Z,14.57
2022-10-18T07:11:27.186Z,14.97
2022-10-18T07:14:16.181Z,15.30
2022-10-18T07:17:01.648Z,15.52
2022-10-18T07:19:46.822Z,15.91
2022-10-18T07:22:31.765Z,16.31
2022-10-18T07:25:17.196Z,16.46
2022-10-18T07:28:02.833Z,16.75
2022-10-18T07:30:52.989Z,16.82
2022-10-18T07:33:48.879Z,16.86
2022-10-18T07:36:36.363Z,16.95
2022-10-18T07:39:24.779Z,17.13
2022-10-18T07:42:09.852Z,17.34
2022-10-18T07:45:01.592Z,17.63
2022-10-18T07:47:54.759Z,17.62
2022-10-18T07:50:40.030Z,17.79
2022-10-18T07:53:25.712Z,17.85
2022-10-18T07:56:21.570Z,17.95
2022-10-18T07:59:12.708Z,18.09
2022-10-18T08:02:05.314Z,18.14
2022-10-18T08:04:53.014Z,18.37
2022-10-18T08:07:39.421Z,18.48
2022-10-18T08:10:30.678Z,18.54
2022-10-18T08:13:17.421Z,18.62
2022-10-18T08:16:49.654Z,18.69
2022-10-18T08:19:34.799Z,18.93
2022-10-18T08:22:22.347Z,19.03
2022-10-18T08:25:07.855Z,19.12
2022-10-18T08:27:52.819Z,18.94
2022-10-18T08:30:37.749Z,18.99
2022-10-18T08:33:23.329Z,19.06
2022-10-18T08:36:12.754Z,19.26
2022-10-18T08:38:59.612Z,19.41
2022-10-18T08:42:09.485Z,19.77
2022-10-18T08:48:46.494Z,19.82
2022-10-18T08:51:48.223Z,20.02
2022-10-18T08:55:02.551Z,20.10
2022-10-18T08:57:50.298Z,20.05
2022-10-18T09:00:40.284Z,19.98
2022-10-18T09:03:52.852Z,19.91
2022-10-18T09:06:58.597Z,19.56
2022-10-18T09:10:22.012Z,19.61
2022-10-18T09:13:29.504Z,19.44
2022-10-18T09:16:25.347Z,19.53
2022-10-18T09:19:40.317Z,19.84
2022-10-18T09:22:52.053Z,20.00
2022-10-18T09:26:06.938Z,20.21
2022-10-18T09:29:10.480Z,20.09
2022-10-18T09:32:09.010Z,20.37
2022-10-18T09:35:00.893Z,20.68
2022-10-18T09:37:47.384Z,20.79
2022-10-18T09:40:38.433Z,20.97
2022-10-18T09:43:38.324Z,20.78
2022-10-18T09:46:38.848Z,20.95
2022-10-18T09:49:49.491Z,20.88
2022-10-18T09:53:03.039Z,20.87
2022-10-18T09:56:18.617Z,21.18
2022-10-18T10:03:18.029Z,21.77
2022-10-18T10:06:17.349Z,21.99
2022-10-18T10:09:14.145Z,22.56
2022-10-18T10:11:59.468Z,22.68
2022-10-18T10:14:44.517Z,22.80
2022-10-18T10:17:32.986Z,22.96
2022-10-18T10:20:31.175Z,23.07
2022-10-18T10:26:30.491Z,22.65
2022-10-18T10:29:50.941Z,22.60
2022-10-18T10:32:51.438Z,22.83
2022-10-18T10:35:56.109Z,23.21
2022-10-18T10:38:41.047Z,23.40
2022-10-18T10:41:27.101Z,23.63
2022-10-18T10:44:20.089Z,23.31
2022-10-18T10:47:05.745Z,23.07
2022-10-18T10:50:27.565Z,22.97
2022-10-18T10:53:27.206Z,23.11
2022-10-18T10:56:22.092Z,22.89
2022-10-18T10:59:15.767Z,23.10
2022-10-18T11:02:17.149Z,23.45
2022-10-18T11:05:25.261Z,23.60
2022-10-18T11:08:16.922Z,23.58
2022-10-18T11:11:13.158Z,23.67
2022-10-18T11:14:31.577Z,23.31
2022-10-18T11:17:25.304Z,23.39
2022-10-18T11:20:19.137Z,23.42
2022-10-18T11:23:12.285Z,23.75
2022-10-18T11:26:12.693Z,24.06
2022-10-18T11:29:05.150Z,23.98
2022-10-18T11:32:02.171Z,24.29
2022-10-18T11:35:12.911Z,24.55
2022-10-18T11:38:15.164Z,24.62
2022-10-18T11:41:26.379Z,24.62
2022-10-18T11:44:29.884Z,24.65
2022-10-18T11:47:40.140Z,24.71
2022-10-18T11:50:47.662Z,24.52
2022-10-18T11:53:52.020Z,24.53
2022-10-18T11:56:59.022Z,24.45
2022-10-18T12:00:11.497Z,24.02
2022-10-18T12:02:59.699Z,24.15
2022-10-18T12:05:48.022Z,24.20
2022-10-18T12:08:41.263Z,24.08
2022-10-18T12:11:32.101Z,24.17
2022-10-18T12:14:34.611Z,24.07
2022-10-18T12:17:46.357Z,24.24
2022-10-18T12:20:48.243Z,24.16
2022-10-18T12:23:50.652Z,24.34
2022-10-18T12:26:35.975Z,24.31
2022-10-18T12:29:23.864Z,24.38
2022-10-18T12:32:14.011Z,24.20
2022-10-18T12:35:12.432Z,23.84
2022-10-18T12:38:11.574Z,23.77
2022-10-18T12:40:59.321Z,23.78
2022-10-18T12:43:51.609Z,23.91
2022-10-18T12:46:50.621Z,24.20
2022-10-18T12:49:40.175Z,24.47
2022-10-18T12:52:31.572Z,23.91
2022-10-18T12:55:19.226Z,23.70
2022-10-18T12:58:28.137Z,23.62
2022-10-18T13:01:13.143Z,23.60
2022-10-18T13:03:58.579Z,23.53
2022-10-18T13:07:04.538Z,23.46
2022-10-18T13:10:13.301Z,23.23
2022-10-18T13:13:39.278Z,23.18
2022-10-18T13:16:50.123Z,23.24
2022-10-18T13:20:02.843Z,23.04
2022-10-18T13:23:23.793Z,23.03
2022-10-18T13:26:23.209Z,23.00
2022-10-18T13:29:29.534Z,23.04
2022-10-18T13:32:23.448Z,22.78
2022-10-18T13:35:46.283Z,22.62
2022-10-18T13:38:39.795Z,22.67
2022-10-18T13:41:45.022Z,22.68
2022-10-18T13:44:39.909Z,22.66
2022-10-18T13:47:36.164Z,22.51
2022-10-18T13:50:35.751Z,22.31
2022-10-18T13:53:36.651Z,22.13
2022-10-18T13:56:38.540Z,21.90
2022-10-18T13:59:33.182Z,21.61
2022-10-18T14:02:59.946Z,21.19
2022-10-18T14:06:02.280Z,21.05
2022-10-18T14:09:01.175Z,21.05
2022-10-18T14:12:02.663Z,20.98
2022-10-18T14:15:20.068Z,20.83
2022-10-18T14:18:13.068Z,20.60
2022-10-18T14:21:14.604Z,20.50
2022-10-18T14:24:00.538Z,20.35
2022-10-18T14:26:45.377Z,20.28
2022-10-18T14:29:30.256Z,20.17
2022-10-18T14:32:31.014Z,19.92
2022-10-18T14:35:33.727Z,19.70
2022-10-18T14:38:22.442Z,19.46
2022-10-18T14:41:17.579Z,19.27
2022-10-18T14:44:29.891Z,19.08
2022-10-18T14:47:26.800Z,18.91
2022-10-18T14:50:23.886Z,18.71
2022-10-18T14:53:15.796Z,18.52
2022-10-18T14:56:03.610Z,18.36
2022-10-18T14:58:48.553Z,18.16
2022-10-18T15:01:35.710Z,17.91
2022-10-18T15:04:26.330Z,17.77
2022-10-18T15:07:17.134Z,17.64
2022-10-18T15:10:04.849Z,17.45
2022-10-18T15:13:08.651Z,17.25
2022-10-18T15:15:55.452Z,17.03
2022-10-18T15:18:41.138Z,16.86
2022-10-18T15:21:28.466Z,16.70
2022-10-18T15:24:25.604Z,16.52
2022-10-18T15:27:20.143Z,16.37
2022-10-18T15:30:16.353Z,16.23
2022-10-18T15:33:03.702Z,16.03
2022-10-18T15:35:48.964Z,15.92
2022-10-18T15:38:36.119Z,15.83
2022-10-18T15:41:38.379Z,15.67
2022-10-18T15:44:34.209Z,15.52
2022-10-18T15:47:21.127Z,15.34
2022-10-18T15:50:37.335Z,15.28
2022-10-18T15:53:23.115Z,15.17
2022-10-18T15:56:33.994Z,15.08
2022-10-18T15:59:30.203Z,15.00
2022-10-18T16:02:15.675Z,14.94
2022-10-18T16:05:02.256Z,14.93
2022-10-18T16:07:54.110Z,14.91
2022-10-18T16:10:40.497Z,14.91
2022-10-18T16:13:26.764Z,14.92
2022-10-18T16:16:21.482Z,14.89
2022-10-18T16:19:13.850Z,14.89
2022-10-18T16:22:06.121Z,14.88
2022-10-18T16:24:52.208Z,14.80
2022-10-18T16:27:37.198Z,14.80
2022-10-18T16:30:27.837Z,14.84
2022-10-18T16:33:14.155Z,14.86
2022-10-18T16:36:04.016Z,14.89
2022-10-18T16:38:49.864Z,14.99
2022-10-18T16:41:35.066Z,14.93
2022-10-18T16:44:20.163Z,14.86
2022-10-18T16:47:04.867Z,14.78
2022-10-18T16:49:52.635Z,14.64
2022-10-18T16:52:37.782Z,14.54
2022-10-18T16:55:24.415Z,14.51
2022-10-18T16:58:18.552Z,14.42
2022-10-18T17:01:06.767Z,14.33
2022-10-18T17:03:54.751Z,14.24
2022-10-18T17:06:39.543Z,14.22
2022-10-18T17:09:24.623Z,14.15
2022-10-18T17:12:09.399Z,14.04
2022-10-18T17:14:54.453Z,13.94
2022-10-18T17:17:39.555Z,13.84
2022-10-18T17:20:25.873Z,13.75
2022-10-18T17:23:11.550Z,13.72
2022-10-18T17:26:06.861Z,13.71
2022-10-18T17:28:56.504Z,13.81
2022-10-18T17:31:41.648Z,13.77
2022-10-18T17:34:26.309Z,13.78
2022-10-18T17:37:11.173Z,13.74
2022-10-18T17:39:56.243Z,13.74
2022-10-18T17:42:41.150Z,13.72
2022-10-18T17:45:26.573Z,13.71
2022-10-18T17:48:11.447Z,13.69
2022-10-18T17:50:56.513Z,13.60
2022-10-18T17:53:41.499Z,13.55
2022-10-18T17:56:30.530Z,13.44
2022-10-18T17:59:15.272Z,13.40
2022-10-18T18:02:00.431Z,13.31
2022-10-18T18:04:45.372Z,13.26
2022-10-18T18:07:30.619Z,13.24
2022-10-18T18:10:15.660Z,13.18
2022-10-18T18:13:01.428Z,13.17
2022-10-18T18:15:45.911Z,13.17
2022-10-18T18:18:31.024Z,13.12
2022-10-18T18:21:16.552Z,13.09
2022-10-18T18:24:01.945Z,13.04
2022-10-18T18:26:46.642Z,12.93
2022-10-18T18:29:31.698Z,12.89
2022-10-18T18:32:16.649Z,12.82
2022-10-18T18:35:01.524Z,12.84
2022-10-18T18:37:50.477Z,12.80
2022-10-18T18:40:35.365Z,12.78
2022-10-18T18:43:23.683Z,12.77
2022-10-18T18:46:09.584Z,12.73
2022-10-18T18:48:57.143Z,12.74
2022-10-18T18:51:42.070Z,12.68
2022-10-18T18:54:29.023Z,12.71
2022-10-18T18:57:14.057Z,12.75
2022-10-18T18:59:58.966Z,12.79
2022-10-18T19:02:44.092Z,12.78
2022-10-18T19:05:29.069Z,12.74
2022-10-18T19:08:13.988Z,12.79
2022-10-18T19:10:59.195Z,12.80
2022-10-18T19:13:44.821Z,12.77
2022-10-18T19:16:35.348Z,12.72
2022-10-18T19:19:23.236Z,12.72
2022-10-18T19:22:09.664Z,12.64
2022-10-18T19:24:54.591Z,12.67
2022-10-18T19:27:39.132Z,12.57
2022-10-18T19:30:24.201Z,12.47
2022-10-18T19:33:10.361Z,12.43
2022-10-18T19:35:55.332Z,12.41
2022-10-18T19:38:40.252Z,12.40
2022-10-18T19:44:16.845Z,12.39
2022-10-18T19:47:03.592Z,12.33
2022-10-18T19:49:48.691Z,12.29
2022-10-18T19:52:33.716Z,12.26
2022-10-18T19:55:19.124Z,12.15
2022-10-18T19:58:04.096Z,12.08
2022-10-18T20:00:53.884Z,12.01
2022-10-18T20:03:38.772Z,11.93
2022-10-18T20:06:23.838Z,11.87
2022-10-18T20:09:13.475Z,11.83
2022-10-18T20:12:01.380Z,11.77
2022-10-18T20:14:46.293Z,11.73
2022-10-18T20:17:32.082Z,11.64
2022-10-18T20:20:16.839Z,11.58
2022-10-18T20:23:01.754Z,11.51
2022-10-18T20:26:00.035Z,11.44
2022-10-18T20:28:45.988Z,11.32
2022-10-18T20:31:35.015Z,11.23
2022-10-18T20:34:25.066Z,11.16
2022-10-18T20:37:10.120Z,11.07
2022-10-18T20:39:55.189Z,10.99
2022-10-18T20:42:40.504Z,10.92
2022-10-18T20:45:25.557Z,10.87
2022-10-18T20:48:10.617Z,10.81
2022-10-18T20:50:55.402Z,10.73
2022-10-18T20:53:40.688Z,10.70
2022-10-18T20:56:30.894Z,10.65
2022-10-18T20:59:16.501Z,10.64
2022-10-18T21:02:01.211Z,10.63
2022-10-18T21:04:46.137Z,10.60
2022-10-18T21:07:31.324Z,10.60
2022-10-18T21:10:16.686Z,10.60
2022-10-18T21:13:01.599Z,10.60
2022-10-18T21:15:54.325Z,10.59
2022-10-18T21:18:39.862Z,10.57
2022-10-18T21:21:24.895Z,10.56
2022-10-18T21:24:11.380Z,10.58
2022-10-18T21:26:56.705Z,10.63
2022-10-18T21:29:41.414Z,10.66
2022-10-18T21:32:26.551Z,10.74
2022-10-18T21:35:11.507Z,10.72
2022-10-18T21:37:56.392Z,10.76
2022-10-18T21:40:44.020Z,10.76
2022-10-18T21:43:28.700Z,10.75
2022-10-18T21:46:16.303Z,10.78
2022-10-18T21:49:01.141Z,10.76
2022-10-18T21:51:46.156Z,10.76
2022-10-18T21:54:31.073Z,10.91
2022-10-18T21:57:15.869Z,10.92
2022-10-18T22:00:01.225Z,11.00
2022-10-18T22:02:45.812Z,11.02
2022-10-18T22:05:31.084Z,11.01
2022-10-18T22:08:15.770Z,11.01
2022-10-18T22:11:01.278Z,11.08
2022-10-18T22:13:46.321Z,11.08
2022-10-18T22:16:31.499Z,11.15
2022-10-18T22:19:16.334Z,11.19
2022-10-18T22:22:01.312Z,11.21
2022-10-18T22:24:47.683Z,11.18
2022-10-18T22:27:32.771Z,11.17
2022-10-18T22:30:17.864Z,11.08
2022-10-18T22:33:02.963Z,11.04
2022-10-18T22:35:51.060Z,10.98
2022-10-18T22:38:37.163Z,10.92
2022-10-18T22:41:21.893Z,10.84
2022-10-18T22:44:07.813Z,10.75
2022-10-18T22:46:53.089Z,10.75
2022-10-18T22:49:37.970Z,10.71
2022-10-18T22:52:23.229Z,10.65
2022-10-18T22:55:08.248Z,10.62
2022-10-18T22:57:54.973Z,10.58
2022-10-18T23:00:39.808Z,10.53
2022-10-18T23:03:24.721Z,10.47
2022-10-18T23:06:24.919Z,10.44
2022-10-18T23:09:10.895Z,10.40
2022-10-18T23:11:56.229Z,10.38
2022-10-18T23:14:41.126Z,10.37
2022-10-18T23:17:25.923Z,10.42
2022-10-18T23:20:10.859Z,10.45
2022-10-18T23:22:55.867Z,10.53
2022-10-18T23:25:40.785Z,10.60
2022-10-18T23:28:25.778Z,10.69
2022-10-18T23:31:14.064Z,10.78
2022-10-18T23:34:01.862Z,10.83
2022-10-18T23:36:46.913Z,10.83
2022-10-18T23:39:31.931Z,10.87
2022-10-18T23:42:16.926Z,10.89
2022-10-18T23:45:02.076Z,10.86
2022-10-18T23:47:47.040Z,10.95
2022-10-18T23:50:31.815Z,10.95
2022-10-18T23:53:19.109Z,10.92
2022-10-18T23:56:09.360Z,10.97
2022-10-18T23:58:56.008Z,11.03
